sensor_id;sensor_type;location;lat;lon;timestamp;pressure;altitude;pressure_sealevel;temperature;humidity
16595;BME280;8410;52.532;13.336;2023-09-08T00:00:52;101774.66;;;23.38;65.00
16595;BME280;8410;52.532;13.336;2023-09-08T00:03:19;101768.72;;;23.30;65.00
16595;BME280;8410;52.532;13.336;2023-09-08T00:05:48;101766.81;;;23.37;65.04
16595;BME280;8410;52.532;13.336;2023-09-08T00:08:16;101766.84;;;23.35;65.40
16595;BME280;8410;52.532;13.336;2023-09-08T00:10:43;101765.91;;;23.38;65.35
16595;BME280;8410;52.532;13.336;2023-09-08T00:13:12;101764.59;;;23.20;65.52
16595;BME280;8410;52.532;13.336;2023-09-08T00:15:39;101757.63;;;23.19;65.44
16595;BME280;8410;52.532;13.336;2023-09-08T00:18:07;101761.88;;;23.23;65.35
16595;BME280;8410;52.532;13.336;2023-09-08T00:20:35;101755.75;;;23.24;65.33
16595;BME280;8410;52.532;13.336;2023-09-08T00:23:03;101760.09;;;23.25;65.44
16595;BME280;8410;52.532;13.336;2023-09-08T00:25:30;101763.03;;;23.13;65.53
16595;BME280;8410;52.532;13.336;2023-09-08T00:27:58;101755.94;;;23.15;65.34
16595;BME280;8410;52.532;13.336;2023-09-08T00:30:27;101755.75;;;23.24;65.35
16595;BME280;8410;52.532;13.336;2023-09-08T00:32:54;101756.84;;;23.14;65.05
16595;BME280;8410;52.532;13.336;2023-09-08T00:35:22;101749.81;;;23.16;65.37
16595;BME280;8410;52.532;13.336;2023-09-08T00:37:49;101753.56;;;23.05;65.38
16595;BME280;8410;52.532;13.336;2023-09-08T00:40:17;101754.56;;;22.98;65.72
16595;BME280;8410;52.532;13.336;2023-09-08T00:42:45;101752.69;;;23.05;65.41
16595;BME280;8410;52.532;13.336;2023-09-08T00:45:13;101753.56;;;23.04;65.53
16595;BME280;8410;52.532;13.336;2023-09-08T00:47:42;101750.25;;;22.97;65.88
16595;BME280;8410;52.532;13.336;2023-09-08T00:50:11;101759.19;;;22.87;66.49
16595;BME280;8410;52.532;13.336;2023-09-08T00:52:38;101757.47;;;22.86;66.24
16595;BME280;8410;52.532;13.336;2023-09-08T00:55:07;101761.91;;;22.82;66.44
16595;BME280;8410;52.532;13.336;2023-09-08T00:57:34;101753.94;;;22.87;66.32
16595;BME280;8410;52.532;13.336;2023-09-08T01:00:02;101756.13;;;22.66;66.58
16595;BME280;8410;52.532;13.336;2023-09-08T01:02:31;101755.41;;;22.60;67.35
16595;BME280;8410;52.532;13.336;2023-09-08T01:05:00;101760.44;;;22.71;66.72
16595;BME280;8410;52.532;13.336;2023-09-08T01:07:30;101754.19;;;22.75;66.24
16595;BME280;8410;52.532;13.336;2023-09-08T01:09:58;101750.16;;;22.61;66.78
16595;BME280;8410;52.532;13.336;2023-09-08T01:12:30;101751.56;;;22.76;66.73
16595;BME280;8410;52.532;13.336;2023-09-08T01:14:58;101748.31;;;22.65;66.92
16595;BME280;8410;52.532;13.336;2023-09-08T01:17:25;101747.56;;;22.58;67.46
16595;BME280;8410;52.532;13.336;2023-09-08T01:19:55;101748.94;;;22.75;66.63
16595;BME280;8410;52.532;13.336;2023-09-08T01:22:42;101737.94;;;22.59;66.68
16595;BME280;8410;52.532;13.336;2023-09-08T01:25:18;101735.41;;;22.54;66.76
16595;BME280;8410;52.532;13.336;2023-09-08T01:27:48;101734.19;;;22.69;66.70
16595;BME280;8410;52.532;13.336;2023-09-08T01:30:16;101736.94;;;22.64;66.73
16595;BME280;8410;52.532;13.336;2023-09-08T01:32:45;101744.69;;;22.29;67.16
16595;BME280;8410;52.532;13.336;2023-09-08T01:35:13;101733.41;;;22.65;66.81
16595;BME280;8410;52.532;13.336;2023-09-08T01:37:42;101731.78;;;22.61;66.71
16595;BME280;8410;52.532;13.336;2023-09-08T01:40:11;101729.34;;;22.52;67.01
16595;BME280;8410;52.532;13.336;2023-09-08T01:42:41;101727.47;;;22.57;67.28
16595;BME280;8410;52.532;13.336;2023-09-08T01:45:08;101730.25;;;22.51;67.11
16595;BME280;8410;52.532;13.336;2023-09-08T01:47:37;101732.56;;;22.63;66.96
16595;BME280;8410;52.532;13.336;2023-09-08T01:50:06;101726.63;;;22.57;67.13
16595;BME280;8410;52.532;13.336;2023-09-08T01:52:33;101731.03;;;22.55;67.15
16595;BME280;8410;52.532;13.336;2023-09-08T01:55:01;101727.63;;;22.51;67.24
16595;BME280;8410;52.532;13.336;2023-09-08T01:57:28;101726.84;;;22.46;67.47
16595;BME280;8410;52.532;13.336;2023-09-08T01:59:57;101719.84;;;22.45;67.56
16595;BME280;8410;52.532;13.336;2023-09-08T02:02:25;101718.75;;;22.57;67.26
16595;BME280;8410;52.532;13.336;2023-09-08T02:04:52;101716.34;;;22.46;67.13
16595;BME280;8410;52.532;13.336;2023-09-08T02:07:20;101717.13;;;22.50;67.60
16595;BME280;8410;52.532;13.336;2023-09-08T02:09:48;101716.34;;;22.46;67.30
16595;BME280;8410;52.532;13.336;2023-09-08T02:12:15;101717.38;;;22.39;67.11
16595;BME280;8410;52.532;13.336;2023-09-08T02:14:42;101717.06;;;22.54;66.84
16595;BME280;8410;52.532;13.336;2023-09-08T02:17:11;101716.28;;;22.49;66.95
16595;BME280;8410;52.532;13.336;2023-09-08T02:19:39;101713.75;;;22.44;67.49
16595;BME280;8410;52.532;13.336;2023-09-08T02:22:07;101713.81;;;22.43;66.78
16595;BME280;8410;52.532;13.336;2023-09-08T02:24:34;101711.81;;;22.54;66.55
16595;BME280;8410;52.532;13.336;2023-09-08T02:27:02;101715.34;;;22.52;66.53
16595;BME280;8410;52.532;13.336;2023-09-08T02:29:30;101717.06;;;22.53;66.65
16595;BME280;8410;52.532;13.336;2023-09-08T02:31:58;101710.97;;;22.52;66.77
16595;BME280;8410;52.532;13.336;2023-09-08T02:34:27;101709.50;;;22.39;66.85
16595;BME280;8410;52.532;13.336;2023-09-08T02:36:54;101709.34;;;22.45;66.74
16595;BME280;8410;52.532;13.336;2023-09-08T02:39:22;101707.75;;;21.94;68.87
16595;BME280;8410;52.532;13.336;2023-09-08T02:41:50;101708.66;;;21.92;68.50
16595;BME280;8410;52.532;13.336;2023-09-08T02:44:17;101704.88;;;22.08;67.93
16595;BME280;8410;52.532;13.336;2023-09-08T02:46:45;101708.59;;;22.40;66.95
16595;BME280;8410;52.532;13.336;2023-09-08T02:49:13;101700.84;;;22.34;66.73
16595;BME280;8410;52.532;13.336;2023-09-08T02:51:41;101705.09;;;22.39;67.02
16595;BME280;8410;52.532;13.336;2023-09-08T02:54:09;101697.66;;;22.18;68.04
16595;BME280;8410;52.532;13.336;2023-09-08T02:56:36;101696.47;;;22.34;67.19
16595;BME280;8410;52.532;13.336;2023-09-08T02:59:04;101700.78;;;22.37;66.93
16595;BME280;8410;52.532;13.336;2023-09-08T03:01:31;101695.69;;;22.31;66.89
16595;BME280;8410;52.532;13.336;2023-09-08T03:03:59;101697.22;;;22.41;66.62
16595;BME280;8410;52.532;13.336;2023-09-08T03:06:27;101692.38;;;22.22;67.84
16595;BME280;8410;52.532;13.336;2023-09-08T03:08:58;101695.78;;;22.26;67.55
16595;BME280;8410;52.532;13.336;2023-09-08T03:11:25;101696.94;;;22.10;68.49
16595;BME280;8410;52.532;13.336;2023-09-08T03:13:53;101689.53;;;22.32;67.40
16595;BME280;8410;52.532;13.336;2023-09-08T03:16:20;101689.03;;;22.13;68.18
16595;BME280;8410;52.532;13.336;2023-09-08T03:18:48;101683.75;;;22.14;67.51
16595;BME280;8410;52.532;13.336;2023-09-08T03:21:15;101689.84;;;22.16;68.17
16595;BME280;8410;52.532;13.336;2023-09-08T03:23:43;101684.63;;;22.15;67.71
16595;BME280;8410;52.532;13.336;2023-09-08T03:26:12;101685.75;;;22.03;68.27
16595;BME280;8410;52.532;13.336;2023-09-08T03:28:42;101676.56;;;22.26;67.79
16595;BME280;8410;52.532;13.336;2023-09-08T03:31:10;101683.81;;;22.11;68.17
16595;BME280;8410;52.532;13.336;2023-09-08T03:33:37;101694.25;;;22.14;68.22
16595;BME280;8410;52.532;13.336;2023-09-08T03:36:05;101682.78;;;22.21;67.90
16595;BME280;8410;52.532;13.336;2023-09-08T03:38:33;101694.19;;;22.17;68.34
16595;BME280;8410;52.532;13.336;2023-09-08T03:41:03;101698.84;;;22.03;68.57
16595;BME280;8410;52.532;13.336;2023-09-08T03:43:32;101696.16;;;22.06;68.55
16595;BME280;8410;52.532;13.336;2023-09-08T03:46:00;101701.19;;;21.72;69.29
16595;BME280;8410;52.532;13.336;2023-09-08T03:48:28;101698.09;;;21.96;69.11
16595;BME280;8410;52.532;13.336;2023-09-08T03:50:55;101697.31;;;21.91;69.01
16595;BME280;8410;52.532;13.336;2023-09-08T03:53:23;101701.69;;;21.91;69.04
16595;BME280;8410;52.532;13.336;2023-09-08T03:55:51;101702.63;;;21.88;69.56
16595;BME280;8410;52.532;13.336;2023-09-08T03:58:18;101706.28;;;21.79;69.22
16595;BME280;8410;52.532;13.336;2023-09-08T04:00:47;101703.59;;;21.83;69.40
16595;BME280;8410;52.532;13.336;2023-09-08T04:03:15;101705.56;;;21.71;69.69
16595;BME280;8410;52.532;13.336;2023-09-08T04:05:42;101706.16;;;21.87;69.39
16595;BME280;8410;52.532;13.336;2023-09-08T04:08:10;101704.59;;;21.75;69.51
16595;BME280;8410;52.532;13.336;2023-09-08T04:10:38;101706.88;;;21.94;68.95
16595;BME280;8410;52.532;13.336;2023-09-08T04:13:05;101701.97;;;21.75;69.38
16595;BME280;8410;52.532;13.336;2023-09-08T04:15:33;101700.66;;;21.53;69.46
16595;BME280;8410;52.532;13.336;2023-09-08T04:18:02;101706.63;;;21.61;70.02
16595;BME280;8410;52.532;13.336;2023-09-08T04:20:30;101694.91;;;21.80;69.66
16595;BME280;8410;52.532;13.336;2023-09-08T04:22:57;101701.19;;;21.70;69.44
16595;BME280;8410;52.532;13.336;2023-09-08T04:25:24;101705.44;;;21.77;69.95
16595;BME280;8410;52.532;13.336;2023-09-08T04:27:52;101703.72;;;21.76;69.06
16595;BME280;8410;52.532;13.336;2023-09-08T04:30:19;101698.44;;;21.79;69.36
16595;BME280;8410;52.532;13.336;2023-09-08T04:32:47;101705.16;;;21.93;68.25
16595;BME280;8410;52.532;13.336;2023-09-08T04:35:16;101709.66;;;21.86;69.39
16595;BME280;8410;52.532;13.336;2023-09-08T04:37:44;101710.94;;;21.65;70.53
16595;BME280;8410;52.532;13.336;2023-09-08T04:40:11;101710.97;;;21.62;70.08
16595;BME280;8410;52.532;13.336;2023-09-08T04:42:39;101707.06;;;21.85;68.87
16595;BME280;8410;52.532;13.336;2023-09-08T04:45:07;101712.72;;;21.63;70.21
16595;BME280;8410;52.532;13.336;2023-09-08T04:47:36;101712.50;;;21.74;69.41
16595;BME280;8410;52.532;13.336;2023-09-08T04:50:04;101709.91;;;21.74;69.43
16595;BME280;8410;52.532;13.336;2023-09-08T04:52:34;101709.84;;;21.75;69.39
16595;BME280;8410;52.532;13.336;2023-09-08T04:55:01;101707.06;;;21.85;69.51
16595;BME280;8410;52.532;13.336;2023-09-08T04:57:28;101707.78;;;21.93;69.18
16595;BME280;8410;52.532;13.336;2023-09-08T04:59:56;101707.28;;;21.72;69.64
16595;BME280;8410;52.532;13.336;2023-09-08T05:02:24;101707.22;;;21.77;69.67
16595;BME280;8410;52.532;13.336;2023-09-08T05:04:51;101708.66;;;21.92;68.91
16595;BME280;8410;52.532;13.336;2023-09-08T05:07:19;101711.53;;;21.79;69.71
16595;BME280;8410;52.532;13.336;2023-09-08T05:09:48;101711.41;;;21.86;68.93
16595;BME280;8410;52.532;13.336;2023-09-08T05:12:15;101707.03;;;21.86;69.46
16595;BME280;8410;52.532;13.336;2023-09-08T05:14:43;101713.75;;;22.01;69.16
16595;BME280;8410;52.532;13.336;2023-09-08T05:17:10;101712.44;;;21.78;70.13
16595;BME280;8410;52.532;13.336;2023-09-08T05:19:38;101708.66;;;21.92;69.69
16595;BME280;8410;52.532;13.336;2023-09-08T05:22:06;101710.63;;;21.80;69.83
16595;BME280;8410;52.532;13.336;2023-09-08T05:24:33;101716.44;;;21.98;68.99
16595;BME280;8410;52.532;13.336;2023-09-08T05:27:03;101711.25;;;21.95;68.87
16595;BME280;8410;52.532;13.336;2023-09-08T05:29:31;101703.25;;;22.01;69.19
16595;BME280;8410;52.532;13.336;2023-09-08T05:31:58;101708.19;;;22.16;68.45
16595;BME280;8410;52.532;13.336;2023-09-08T05:34:26;101703.75;;;22.21;68.48
16595;BME280;8410;52.532;13.336;2023-09-08T05:36:53;101716.00;;;21.74;70.21
16595;BME280;8410;52.532;13.336;2023-09-08T05:39:21;101709.97;;;22.14;68.50
16595;BME280;8410;52.532;13.336;2023-09-08T05:41:48;101707.97;;;22.29;68.36
16595;BME280;8410;52.532;13.336;2023-09-08T05:44:17;101707.84;;;22.35;68.11
16595;BME280;8410;52.532;13.336;2023-09-08T05:46:44;101712.97;;;22.41;68.16
16595;BME280;8410;52.532;13.336;2023-09-08T05:49:12;101705.78;;;22.49;67.42
16595;BME280;8410;52.532;13.336;2023-09-08T05:51:40;101718.13;;;22.00;69.09
16595;BME280;8410;52.532;13.336;2023-09-08T05:54:08;101706.41;;;22.60;67.44
16595;BME280;8410;52.532;13.336;2023-09-08T05:56:36;101714.34;;;22.57;66.82
16595;BME280;8410;52.532;13.336;2023-09-08T05:59:04;101713.03;;;22.77;66.54
16595;BME280;8410;52.532;13.336;2023-09-08T06:01:33;101718.13;;;22.45;67.91
16595;BME280;8410;52.532;13.336;2023-09-08T06:04:01;101708.56;;;22.41;67.92
16595;BME280;8410;52.532;13.336;2023-09-08T06:06:28;101715.28;;;22.55;67.43
16595;BME280;8410;52.532;13.336;2023-09-08T06:08:56;101717.13;;;22.51;67.59
16595;BME280;8410;52.532;13.336;2023-09-08T06:11:23;101716.66;;;22.73;67.45
16595;BME280;8410;52.532;13.336;2023-09-08T06:13:51;101712.16;;;22.78;67.23
16595;BME280;8410;52.532;13.336;2023-09-08T06:16:22;101706.81;;;22.81;67.04
16595;BME280;8410;52.532;13.336;2023-09-08T06:18:51;101710.03;;;22.55;67.72
16595;BME280;8410;52.532;13.336;2023-09-08T06:21:19;101714.25;;;23.01;67.15
16595;BME280;8410;52.532;13.336;2023-09-08T06:23:46;101705.41;;;22.66;67.61
16595;BME280;8410;52.532;13.336;2023-09-08T06:26:15;101702.09;;;22.95;66.70
16595;BME280;8410;52.532;13.336;2023-09-08T06:28:42;101707.31;;;22.98;66.51
16595;BME280;8410;52.532;13.336;2023-09-08T06:31:10;101715.88;;;23.06;66.14
16595;BME280;8410;52.532;13.336;2023-09-08T06:33:38;101707.59;;;22.84;67.16
16595;BME280;8410;52.532;13.336;2023-09-08T06:36:07;101704.31;;;23.14;65.90
16595;BME280;8410;52.532;13.336;2023-09-08T06:38:34;101706.69;;;22.87;67.06
16595;BME280;8410;52.532;13.336;2023-09-08T06:41:08;101700.94;;;23.08;65.78
16595;BME280;8410;52.532;13.336;2023-09-08T06:43:36;101704.78;;;23.31;65.78
16595;BME280;8410;52.532;13.336;2023-09-08T06:46:05;101701.81;;;23.43;65.53
16595;BME280;8410;52.532;13.336;2023-09-08T06:48:32;101697.97;;;23.22;65.90
16595;BME280;8410;52.532;13.336;2023-09-08T06:51:00;101701.25;;;23.32;66.05
16595;BME280;8410;52.532;13.336;2023-09-08T06:53:29;101693.19;;;23.38;65.45
16595;BME280;8410;52.532;13.336;2023-09-08T06:55:57;101694.56;;;22.80;68.05
16595;BME280;8410;52.532;13.336;2023-09-08T06:58:25;101698.63;;;23.32;65.68
16595;BME280;8410;52.532;13.336;2023-09-08T07:00:53;101700.50;;;23.27;66.07
16595;BME280;8410;52.532;13.336;2023-09-08T07:03:21;101701.44;;;23.24;66.14
16595;BME280;8410;52.532;13.336;2023-09-08T07:05:49;101698.03;;;23.21;67.05
16595;BME280;8410;52.532;13.336;2023-09-08T07:08:17;101704.56;;;23.39;66.11
16595;BME280;8410;52.532;13.336;2023-09-08T07:10:51;101701.91;;;22.65;67.82
16595;BME280;8410;52.532;13.336;2023-09-08T07:13:19;101710.50;;;23.11;68.32
16595;BME280;8410;52.532;13.336;2023-09-08T07:15:47;101704.56;;;23.04;66.30
16595;BME280;8410;52.532;13.336;2023-09-08T07:18:14;101702.00;;;23.37;67.45
16595;BME280;8410;52.532;13.336;2023-09-08T07:20:46;101701.34;;;23.62;66.05
16595;BME280;8410;52.532;13.336;2023-09-08T07:23:13;101706.41;;;23.68;65.42
16595;BME280;8410;52.532;13.336;2023-09-08T07:25:46;101703.41;;;23.50;66.11
16595;BME280;8410;52.532;13.336;2023-09-08T07:28:14;101702.09;;;23.65;65.77
16595;BME280;8410;52.532;13.336;2023-09-08T07:30:42;101701.91;;;24.06;64.90
16595;BME280;8410;52.532;13.336;2023-09-08T07:33:10;101699.97;;;23.81;66.03
16595;BME280;8410;52.532;13.336;2023-09-08T07:35:38;101701.84;;;24.09;65.62
16595;BME280;8410;52.532;13.336;2023-09-08T07:38:06;101702.00;;;24.03;65.02
16595;BME280;8410;52.532;13.336;2023-09-08T07:40:34;101701.38;;;24.24;64.55
16595;BME280;8410;52.532;13.336;2023-09-08T07:43:03;101704.41;;;24.10;65.38
16595;BME280;8410;52.532;13.336;2023-09-08T07:45:31;101699.56;;;24.56;64.45
16595;BME280;8410;52.532;13.336;2023-09-08T07:47:58;101700.56;;;24.22;64.59
16595;BME280;8410;52.532;13.336;2023-09-08T07:50:28;101701.22;;;24.30;64.93
16595;BME280;8410;52.532;13.336;2023-09-08T07:52:56;101710.00;;;24.29;64.08
16595;BME280;8410;52.532;13.336;2023-09-08T07:55:24;101706.28;;;24.66;62.50
16595;BME280;8410;52.532;13.336;2023-09-08T07:57:53;101704.13;;;24.79;62.35
16595;BME280;8410;52.532;13.336;2023-09-08T08:00:23;101717.34;;;24.77;63.45
16595;BME280;8410;52.532;13.336;2023-09-08T08:02:54;101715.84;;;24.70;63.33
16595;BME280;8410;52.532;13.336;2023-09-08T08:05:22;101714.00;;;24.72;63.47
16595;BME280;8410;52.532;13.336;2023-09-08T08:07:50;101718.50;;;24.97;62.96
16595;BME280;8410;52.532;13.336;2023-09-08T08:10:18;101717.03;;;25.15;62.54
16595;BME280;8410;52.532;13.336;2023-09-08T08:12:45;101712.69;;;25.14;61.89
16595;BME280;8410;52.532;13.336;2023-09-08T08:15:13;101710.97;;;24.84;62.74
16595;BME280;8410;52.532;13.336;2023-09-08T08:17:42;101701.22;;;25.15;62.13
16595;BME280;8410;52.532;13.336;2023-09-08T08:20:11;101708.81;;;24.69;62.84
16595;BME280;8410;52.532;13.336;2023-09-08T08:22:44;101714.00;;;24.72;62.93
16595;BME280;8410;52.532;13.336;2023-09-08T08:25:12;101700.28;;;25.17;62.22
16595;BME280;8410;52.532;13.336;2023-09-08T08:27:40;101697.97;;;25.35;61.63
16595;BME280;8410;52.532;13.336;2023-09-08T08:30:08;101702.84;;;24.92;61.56
16595;BME280;8410;52.532;13.336;2023-09-08T08:32:38;101702.03;;;25.18;60.88
16595;BME280;8410;52.532;13.336;2023-09-08T08:35:07;101686.31;;;25.65;60.76
16595;BME280;8410;52.532;13.336;2023-09-08T08:37:34;101699.63;;;25.62;60.59
16595;BME280;8410;52.532;13.336;2023-09-08T08:40:02;101686.88;;;25.75;61.08
16595;BME280;8410;52.532;13.336;2023-09-08T08:42:31;101696.66;;;25.21;60.66
16595;BME280;8410;52.532;13.336;2023-09-08T08:44:59;101691.75;;;25.36;60.87
16595;BME280;8410;52.532;13.336;2023-09-08T08:47:28;101688.91;;;25.92;60.53
16595;BME280;8410;52.532;13.336;2023-09-08T08:49:57;101690.41;;;25.99;60.09
16595;BME280;8410;52.532;13.336;2023-09-08T08:52:27;101694.88;;;25.47;60.86
16595;BME280;8410;52.532;13.336;2023-09-08T08:54:55;101687.41;;;25.85;60.07
16595;BME280;8410;52.532;13.336;2023-09-08T08:57:23;101681.97;;;25.64;59.54
16595;BME280;8410;52.532;13.336;2023-09-08T08:59:53;101675.84;;;26.12;59.24
16595;BME280;8410;52.532;13.336;2023-09-08T09:02:22;101672.06;;;26.20;59.48
16595;BME280;8410;52.532;13.336;2023-09-08T09:04:50;101669.88;;;26.31;59.39
16595;BME280;8410;52.532;13.336;2023-09-08T09:07:18;101674.88;;;26.15;59.08
16595;BME280;8410;52.532;13.336;2023-09-08T09:09:49;101670.00;;;26.28;58.76
16595;BME280;8410;52.532;13.336;2023-09-08T09:12:16;101669.06;;;26.52;58.00
16595;BME280;8410;52.532;13.336;2023-09-08T09:14:47;101673.97;;;26.38;58.98
16595;BME280;8410;52.532;13.336;2023-09-08T09:17:15;101675.03;;;26.34;58.84
16595;BME280;8410;52.532;13.336;2023-09-08T09:19:42;101674.66;;;26.43;58.95
16595;BME280;8410;52.532;13.336;2023-09-08T09:22:10;101664.81;;;26.25;58.72
16595;BME280;8410;52.532;13.336;2023-09-08T09:24:39;101675.28;;;26.04;59.31
16595;BME280;8410;52.532;13.336;2023-09-08T09:27:12;101675.41;;;26.47;59.06
16595;BME280;8410;52.532;13.336;2023-09-08T09:29:44;101673.19;;;26.36;58.81
16595;BME280;8410;52.532;13.336;2023-09-08T09:32:13;101672.44;;;26.32;58.21
16595;BME280;8410;52.532;13.336;2023-09-08T09:34:47;101670.00;;;26.28;58.63
16595;BME280;8410;52.532;13.336;2023-09-08T09:37:16;101664.94;;;26.67;57.71
16595;BME280;8410;52.532;13.336;2023-09-08T09:39:48;101665.97;;;26.85;57.87
16595;BME280;8410;52.532;13.336;2023-09-08T09:42:18;101660.78;;;26.38;59.02
16595;BME280;8410;52.532;13.336;2023-09-08T09:44:46;101659.88;;;26.63;57.62
16595;BME280;8410;52.532;13.336;2023-09-08T09:47:14;101660.66;;;26.87;57.63
16595;BME280;8410;52.532;13.336;2023-09-08T09:49:43;101656.81;;;26.94;57.14
16595;BME280;8410;52.532;13.336;2023-09-08T09:52:12;101661.41;;;27.11;57.53
16595;BME280;8410;52.532;13.336;2023-09-08T09:54:41;101652.94;;;27.02;56.74
16595;BME280;8410;52.532;13.336;2023-09-08T09:57:11;101661.72;;;27.03;56.98
16595;BME280;8410;52.532;13.336;2023-09-08T09:59:41;101661.28;;;27.14;57.32
16595;BME280;8410;52.532;13.336;2023-09-08T10:02:11;101657.09;;;27.08;57.16
16595;BME280;8410;52.532;13.336;2023-09-08T10:04:40;101653.78;;;27.03;57.11
16595;BME280;8410;52.532;13.336;2023-09-08T10:07:09;101654.25;;;26.70;57.88
16595;BME280;8410;52.532;13.336;2023-09-08T10:09:36;101655.09;;;26.93;57.17
16595;BME280;8410;52.532;13.336;2023-09-08T10:12:05;101637.09;;;27.43;56.38
16595;BME280;8410;52.532;13.336;2023-09-08T10:14:36;101642.78;;;27.34;55.96
16595;BME280;8410;52.532;13.336;2023-09-08T10:17:05;101642.91;;;27.31;56.52
16595;BME280;8410;52.532;13.336;2023-09-08T10:19:35;101647.53;;;27.05;56.87
16595;BME280;8410;52.532;13.336;2023-09-08T10:22:12;101639.94;;;27.39;55.60
16595;BME280;8410;52.532;13.336;2023-09-08T10:24:43;101641.84;;;27.15;56.05
16595;BME280;8410;52.532;13.336;2023-09-08T10:27:12;101629.00;;;27.67;55.30
16595;BME280;8410;52.532;13.336;2023-09-08T10:29:40;101635.25;;;27.45;55.58
16595;BME280;8410;52.532;13.336;2023-09-08T10:32:09;101628.13;;;27.66;54.93
16595;BME280;8410;52.532;13.336;2023-09-08T10:34:40;101636.44;;;27.18;55.51
16595;BME280;8410;52.532;13.336;2023-09-08T10:37:19;101632.63;;;27.25;55.50
16595;BME280;8410;52.532;13.336;2023-09-08T10:39:46;101616.84;;;27.63;54.83
16595;BME280;8410;52.532;13.336;2023-09-08T10:42:24;101621.06;;;27.67;54.97
16595;BME280;8410;52.532;13.336;2023-09-08T10:44:59;101613.25;;;27.64;55.31
16595;BME280;8410;52.532;13.336;2023-09-08T10:47:33;101622.13;;;27.63;54.17
16595;BME280;8410;52.532;13.336;2023-09-08T10:50:07;101621.31;;;27.61;55.05
16595;BME280;8410;52.532;13.336;2023-09-08T10:52:43;101616.19;;;27.77;54.28
16595;BME280;8410;52.532;13.336;2023-09-08T10:55:11;101615.69;;;27.68;54.62
16595;BME280;8410;52.532;13.336;2023-09-08T10:57:44;101614.09;;;27.85;54.06
16595;BME280;8410;52.532;13.336;2023-09-08T11:00:17;101614.38;;;27.58;54.25
16595;BME280;8410;52.532;13.336;2023-09-08T11:02:49;101619.56;;;27.61;54.97
16595;BME280;8410;52.532;13.336;2023-09-08T11:05:17;101615.03;;;28.03;54.17
16595;BME280;8410;52.532;13.336;2023-09-08T11:07:48;101609.72;;;27.44;54.54
16595;BME280;8410;52.532;13.336;2023-09-08T11:10:16;101615.69;;;28.08;53.71
16595;BME280;8410;52.532;13.336;2023-09-08T11:12:44;101608.25;;;27.58;54.53
16595;BME280;8410;52.532;13.336;2023-09-08T11:15:11;101630.31;;;27.16;55.14
16595;BME280;8410;52.532;13.336;2023-09-08T11:17:38;101610.75;;;27.81;53.94
16595;BME280;8410;52.532;13.336;2023-09-08T11:20:10;101609.41;;;27.71;54.30
16595;BME280;8410;52.532;13.336;2023-09-08T11:22:39;101602.75;;;28.02;53.82
16595;BME280;8410;52.532;13.336;2023-09-08T11:25:07;101603.41;;;28.24;52.71
16595;BME280;8410;52.532;13.336;2023-09-08T11:27:37;101607.34;;;27.78;53.75
16595;BME280;8410;52.532;13.336;2023-09-08T11:30:08;101603.94;;;27.95;52.77
16595;BME280;8410;52.532;13.336;2023-09-08T11:32:35;101606.56;;;27.76;53.72
16595;BME280;8410;52.532;13.336;2023-09-08T11:35:04;101595.13;;;27.75;53.43
16595;BME280;8410;52.532;13.336;2023-09-08T11:37:36;101593.84;;;28.03;53.46
16595;BME280;8410;52.532;13.336;2023-09-08T11:40:05;101593.81;;;28.41;52.69
16595;BME280;8410;52.532;13.336;2023-09-08T11:42:36;101593.97;;;28.37;52.69
16595;BME280;8410;52.532;13.336;2023-09-08T11:45:11;101595.38;;;27.69;54.04
16595;BME280;8410;52.532;13.336;2023-09-08T11:47:40;101592.34;;;28.16;53.02
16595;BME280;8410;52.532;13.336;2023-09-08T11:50:09;101592.06;;;27.84;52.40
16595;BME280;8410;52.532;13.336;2023-09-08T11:52:39;101586.78;;;27.84;51.70
16595;BME280;8410;52.532;13.336;2023-09-08T11:55:08;101579.31;;;28.11;51.59
16595;BME280;8410;52.532;13.336;2023-09-08T11:57:36;101583.41;;;28.00;51.54
16595;BME280;8410;52.532;13.336;2023-09-08T12:00:05;101585.38;;;28.32;51.76
16595;BME280;8410;52.532;13.336;2023-09-08T12:02:36;101568.78;;;28.48;51.42
16595;BME280;8410;52.532;13.336;2023-09-08T12:05:04;101574.50;;;28.20;51.33
16595;BME280;8410;52.532;13.336;2023-09-08T12:07:32;101567.09;;;28.09;51.64
16595;BME280;8410;52.532;13.336;2023-09-08T12:10:08;101559.09;;;28.10;51.31
16595;BME280;8410;52.532;13.336;2023-09-08T12:12:41;101556.31;;;27.95;51.20
16595;BME280;8410;52.532;13.336;2023-09-08T12:15:09;101559.66;;;27.98;51.70
16595;BME280;8410;52.532;13.336;2023-09-08T12:17:47;101561.09;;;28.05;50.22
16595;BME280;8410;52.532;13.336;2023-09-08T12:20:16;101562.66;;;27.90;51.36
16595;BME280;8410;52.532;13.336;2023-09-08T12:22:47;101556.97;;;28.00;51.93
16595;BME280;8410;52.532;13.336;2023-09-08T12:25:18;101552.53;;;27.81;51.08
16595;BME280;8410;52.532;13.336;2023-09-08T12:27:46;101548.94;;;27.82;51.33
16595;BME280;8410;52.532;13.336;2023-09-08T12:30:17;101542.56;;;28.42;50.76
16595;BME280;8410;52.532;13.336;2023-09-08T12:32:47;101539.84;;;28.43;50.83
16595;BME280;8410;52.532;13.336;2023-09-08T12:35:20;101543.41;;;28.42;50.92
16595;BME280;8410;52.532;13.336;2023-09-08T12:37:56;101536.28;;;28.44;49.93
16595;BME280;8410;52.532;13.336;2023-09-08T12:40:25;101535.69;;;28.20;49.99
16595;BME280;8410;52.532;13.336;2023-09-08T12:42:53;101537.47;;;28.56;49.45
16595;BME280;8410;52.532;13.336;2023-09-08T12:45:35;101536.13;;;28.82;49.89
16595;BME280;8410;52.532;13.336;2023-09-08T12:48:04;101537.22;;;28.07;49.93
16595;BME280;8410;52.532;13.336;2023-09-08T12:50:33;101543.25;;;28.09;49.29
16595;BME280;8410;52.532;13.336;2023-09-08T12:53:00;101530.22;;;28.23;49.59
16595;BME280;8410;52.532;13.336;2023-09-08T12:55:29;101527.31;;;28.47;48.92
16595;BME280;8410;52.532;13.336;2023-09-08T12:57:57;101522.66;;;28.33;49.60